sensor_id;sensor_type;location;lat;lon;timestamp;temperature;humidity
3312;DHT22;1668;49.648;8.570;2023-03-01T00:02:21;0.90;1.00
3312;DHT22;1668;49.648;8.570;2023-03-01T00:04:50;0.90;1.00
3312;DHT22;1668;49.648;8.570;2023-03-01T00:07:17;0.90;1.00
3312;DHT22;1668;49.648;8.570;2023-03-01T00:09:44;0.80;1.00
3312;DHT22;1668;49.648;8.570;2023-03-01T00:12:11;0.90;1.00
3312;DHT22;1668;49.648;8.570;2023-03-01T00:14:38;0.90;1.00
3312;DHT22;1668;49.648;8.570;2023-03-01T00:17:05;0.90;1.00
3312;DHT22;1668;49.648;8.570;2023-03-01T00:19:31;0.90;1.00
3312;DHT22;1668;49.648;8.570;2023-03-01T00:22:00;0.80;1.00
3312;DHT22;1668;49.648;8.570;2023-03-01T00:24:27;0.80;1.00
3312;DHT22;1668;49.648;8.570;2023-03-01T00:26:54;0.80;1.00
3312;DHT22;1668;49.648;8.570;2023-03-01T00:32:44;0.70;1.00
3312;DHT22;1668;49.648;8.570;2023-03-01T00:35:11;0.70;1.00
3312;DHT22;1668;49.648;8.570;2023-03-01T00:37:39;0.80;1.00
3312;DHT22;1668;49.648;8.570;2023-03-01T00:40:08;0.70;1.00
3312;DHT22;1668;49.648;8.570;2023-03-01T00:42:35;0.70;1.00
3312;DHT22;1668;49.648;8.570;2023-03-01T00:45:03;0.70;1.00
3312;DHT22;1668;49.648;8.570;2023-03-01T00:47:29;0.70;3.50
3312;DHT22;1668;49.648;8.570;2023-03-01T00:49:56;0.70;1.00
3312;DHT22;1668;49.648;8.570;2023-03-01T00:52:23;0.60;1.00
3312;DHT22;1668;49.648;8.570;2023-03-01T00:54:53;0.60;23.30
3312;DHT22;1668;49.648;8.570;2023-03-01T00:57:20;0.70;30.20
3312;DHT22;1668;49.648;8.570;2023-03-01T00:59:47;0.60;19.70
3312;DHT22;1668;49.648;8.570;2023-03-01T01:02:14;0.60;30.90
3312;DHT22;1668;49.648;8.570;2023-03-01T01:04:40;0.60;99.90
3312;DHT22;1668;49.648;8.570;2023-03-01T01:07:07;0.60;94.80
3312;DHT22;1668;49.648;8.570;2023-03-01T01:09:34;0.60;45.30
3312;DHT22;1668;49.648;8.570;2023-03-01T01:15:25;0.50;78.50
3312;DHT22;1668;49.648;8.570;2023-03-01T01:17:52;0.50;99.70
3312;DHT22;1668;49.648;8.570;2023-03-01T01:20:20;0.50;94.20
3312;DHT22;1668;49.648;8.570;2023-03-01T01:22:47;0.40;98.10
3312;DHT22;1668;49.648;8.570;2023-03-01T01:25:14;0.40;96.80
3312;DHT22;1668;49.648;8.570;2023-03-01T01:27:40;0.40;99.90
3312;DHT22;1668;49.648;8.570;2023-03-01T01:30:11;0.50;99.90
3312;DHT22;1668;49.648;8.570;2023-03-01T01:32:42;0.40;99.90
3312;DHT22;1668;49.648;8.570;2023-03-01T01:35:08;0.40;99.90
3312;DHT22;1668;49.648;8.570;2023-03-01T01:37:35;0.40;99.90
3312;DHT22;1668;49.648;8.570;2023-03-01T01:40:03;0.40;99.90
3312;DHT22;1668;49.648;8.570;2023-03-01T01:42:30;0.40;99.90
3312;DHT22;1668;49.648;8.570;2023-03-01T01:45:27;0.40;99.90
3312;DHT22;1668;49.648;8.570;2023-03-01T01:47:57;0.30;99.90
3312;DHT22;1668;49.648;8.570;2023-03-01T01:50:25;0.30;99.90
3312;DHT22;1668;49.648;8.570;2023-03-01T01:52:53;0.20;99.90
3312;DHT22;1668;49.648;8.570;2023-03-01T01:55:24;0.20;99.90
3312;DHT22;1668;49.648;8.570;2023-03-01T01:57:55;0.20;99.90
3312;DHT22;1668;49.648;8.570;2023-03-01T02:00:28;0.20;99.90
3312;DHT22;1668;49.648;8.570;2023-03-01T02:02:58;0.10;99.90
3312;DHT22;1668;49.648;8.570;2023-03-01T02:05:30;0.20;99.90
3312;DHT22;1668;49.648;8.570;2023-03-01T02:07:59;0.20;99.90
3312;DHT22;1668;49.648;8.570;2023-03-01T02:10:27;0.20;99.90
3312;DHT22;1668;49.648;8.570;2023-03-01T02:12:54;0.20;99.90
3312;DHT22;1668;49.648;8.570;2023-03-01T02:15:23;0.20;99.90
3312;DHT22;1668;49.648;8.570;2023-03-01T02:17:50;0.10;99.90
3312;DHT22;1668;49.648;8.570;2023-03-01T02:20:23;0.20;99.90
3312;DHT22;1668;49.648;8.570;2023-03-01T02:22:54;0.20;99.90
3312;DHT22;1668;49.648;8.570;2023-03-01T02:25:27;0.20;99.90
3312;DHT22;1668;49.648;8.570;2023-03-01T02:27:58;0.10;99.90
3312;DHT22;1668;49.648;8.570;2023-03-01T02:30:27;0.10;99.90
3312;DHT22;1668;49.648;8.570;2023-03-01T02:32:56;0.10;99.90
3312;DHT22;1668;49.648;8.570;2023-03-01T02:35:30;0.10;99.90
3312;DHT22;1668;49.648;8.570;2023-03-01T02:37:58;0.10;99.90
3312;DHT22;1668;49.648;8.570;2023-03-01T02:40:28;0.10;99.90
3312;DHT22;1668;49.648;8.570;2023-03-01T02:42:57;0.10;99.90
3312;DHT22;1668;49.648;8.570;2023-03-01T02:45:26;0.10;99.90
3312;DHT22;1668;49.648;8.570;2023-03-01T02:47:54;0.00;99.90
3312;DHT22;1668;49.648;8.570;2023-03-01T02:50:39;0.00;99.90
3312;DHT22;1668;49.648;8.570;2023-03-01T02:53:13;0.00;99.90
3312;DHT22;1668;49.648;8.570;2023-03-01T02:55:42;0.00;99.90
3312;DHT22;1668;49.648;8.570;2023-03-01T02:58:10;-0.10;99.90
3312;DHT22;1668;49.648;8.570;2023-03-01T03:00:40;-0.10;99.90
3312;DHT22;1668;49.648;8.570;2023-03-01T03:03:13;-0.20;99.90
3312;DHT22;1668;49.648;8.570;2023-03-01T03:09:27;-0.20;99.90
3312;DHT22;1668;49.648;8.570;2023-03-01T03:11:54;-0.20;1.00
3312;DHT22;1668;49.648;8.570;2023-03-01T03:14:21;-0.30;1.00
3312;DHT22;1668;49.648;8.570;2023-03-01T03:16:50;-0.30;1.00
3312;DHT22;1668;49.648;8.570;2023-03-01T03:19:17;-0.30;1.00
3312;DHT22;1668;49.648;8.570;2023-03-01T03:21:44;-0.40;1.00
3312;DHT22;1668;49.648;8.570;2023-03-01T03:24:11;-0.40;1.00
3312;DHT22;1668;49.648;8.570;2023-03-01T03:26:38;-0.40;1.00
3312;DHT22;1668;49.648;8.570;2023-03-01T03:29:05;-0.40;1.00
3312;DHT22;1668;49.648;8.570;2023-03-01T03:31:32;-0.40;1.00
3312;DHT22;1668;49.648;8.570;2023-03-01T03:34:00;-0.40;1.00
3312;DHT22;1668;49.648;8.570;2023-03-01T03:36:27;-0.40;1.00
3312;DHT22;1668;49.648;8.570;2023-03-01T03:38:54;-0.40;1.00
3312;DHT22;1668;49.648;8.570;2023-03-01T03:41:20;-0.40;1.00
3312;DHT22;1668;49.648;8.570;2023-03-01T03:43:47;-0.50;1.00
3312;DHT22;1668;49.648;8.570;2023-03-01T03:46:14;-0.50;1.00
3312;DHT22;1668;49.648;8.570;2023-03-01T03:48:44;-0.50;1.00
3312;DHT22;1668;49.648;8.570;2023-03-01T03:51:13;-0.50;1.00
3312;DHT22;1668;49.648;8.570;2023-03-01T03:53:41;-0.50;1.00
3312;DHT22;1668;49.648;8.570;2023-03-01T03:56:08;-0.50;1.00
3312;DHT22;1668;49.648;8.570;2023-03-01T03:58:36;-0.50;1.00
3312;DHT22;1668;49.648;8.570;2023-03-01T04:01:04;-0.40;1.00
3312;DHT22;1668;49.648;8.570;2023-03-01T04:03:31;-0.40;1.00
3312;DHT22;1668;49.648;8.570;2023-03-01T04:05:59;-0.40;1.00
3312;DHT22;1668;49.648;8.570;2023-03-01T04:08:28;-0.40;1.00
3312;DHT22;1668;49.648;8.570;2023-03-01T04:10:58;-0.40;1.00
3312;DHT22;1668;49.648;8.570;2023-03-01T04:13:25;-0.40;1.00
3312;DHT22;1668;49.648;8.570;2023-03-01T04:15:53;-0.40;1.00
3312;DHT22;1668;49.648;8.570;2023-03-01T04:18:22;-0.30;1.00
3312;DHT22;1668;49.648;8.570;2023-03-01T04:20:49;-0.30;1.00
3312;DHT22;1668;49.648;8.570;2023-03-01T04:23:19;-0.30;1.00
3312;DHT22;1668;49.648;8.570;2023-03-01T04:25:49;-0.30;1.00
3312;DHT22;1668;49.648;8.570;2023-03-01T04:28:19;-0.30;1.00
3312;DHT22;1668;49.648;8.570;2023-03-01T04:30:46;-0.30;1.00
3312;DHT22;1668;49.648;8.570;2023-03-01T04:33:13;-0.20;1.00
3312;DHT22;1668;49.648;8.570;2023-03-01T04:35:40;-0.20;1.00
3312;DHT22;1668;49.648;8.570;2023-03-01T04:38:08;-0.20;1.00
3312;DHT22;1668;49.648;8.570;2023-03-01T04:40:35;-0.20;1.00
3312;DHT22;1668;49.648;8.570;2023-03-01T04:43:04;-0.20;1.00
3312;DHT22;1668;49.648;8.570;2023-03-01T04:45:32;-0.20;1.00
3312;DHT22;1668;49.648;8.570;2023-03-01T04:48:01;-0.20;1.00
3312;DHT22;1668;49.648;8.570;2023-03-01T04:50:28;-0.20;1.00
3312;DHT22;1668;49.648;8.570;2023-03-01T04:52:55;-0.20;1.00
3312;DHT22;1668;49.648;8.570;2023-03-01T04:55:24;-0.20;1.00
3312;DHT22;1668;49.648;8.570;2023-03-01T04:57:51;-0.20;1.00
3312;DHT22;1668;49.648;8.570;2023-03-01T05:00:20;-0.20;1.00
3312;DHT22;1668;49.648;8.570;2023-03-01T05:02:49;-0.10;1.00
3312;DHT22;1668;49.648;8.570;2023-03-01T05:05:20;-0.10;1.00
3312;DHT22;1668;49.648;8.570;2023-03-01T05:07:52;-0.10;1.00
3312;DHT22;1668;49.648;8.570;2023-03-01T05:10:19;-0.10;1.00
3312;DHT22;1668;49.648;8.570;2023-03-01T05:12:46;-0.10;1.00
3312;DHT22;1668;49.648;8.570;2023-03-01T05:15:13;-0.20;1.00
3312;DHT22;1668;49.648;8.570;2023-03-01T05:17:41;-0.20;1.00
3312;DHT22;1668;49.648;8.570;2023-03-01T05:20:10;-0.20;1.00
3312;DHT22;1668;49.648;8.570;2023-03-01T05:22:37;-0.20;1.00
3312;DHT22;1668;49.648;8.570;2023-03-01T05:25:05;-0.10;1.00
3312;DHT22;1668;49.648;8.570;2023-03-01T05:27:33;-0.20;1.00
3312;DHT22;1668;49.648;8.570;2023-03-01T05:30:00;-0.20;1.00
3312;DHT22;1668;49.648;8.570;2023-03-01T05:32:41;-0.20;1.00
3312;DHT22;1668;49.648;8.570;2023-03-01T05:35:11;-0.20;1.00
3312;DHT22;1668;49.648;8.570;2023-03-01T05:37:40;-0.20;1.00
3312;DHT22;1668;49.648;8.570;2023-03-01T05:43:31;-0.20;1.00
3312;DHT22;1668;49.648;8.570;2023-03-01T05:45:59;-0.20;1.00
3312;DHT22;1668;49.648;8.570;2023-03-01T05:48:27;-0.20;1.00
3312;DHT22;1668;49.648;8.570;2023-03-01T05:50:54;-0.20;1.00
3312;DHT22;1668;49.648;8.570;2023-03-01T05:53:21;-0.20;1.00
3312;DHT22;1668;49.648;8.570;2023-03-01T05:55:48;-0.20;1.00
3312;DHT22;1668;49.648;8.570;2023-03-01T05:58:16;-0.20;1.00
3312;DHT22;1668;49.648;8.570;2023-03-01T06:00:44;-0.20;1.00
3312;DHT22;1668;49.648;8.570;2023-03-01T06:03:13;-0.20;1.00
3312;DHT22;1668;49.648;8.570;2023-03-01T06:05:42;-0.30;1.00
3312;DHT22;1668;49.648;8.570;2023-03-01T06:08:10;-0.30;1.00
3312;DHT22;1668;49.648;8.570;2023-03-01T06:10:37;-0.30;1.00
3312;DHT22;1668;49.648;8.570;2023-03-01T06:13:04;-0.30;1.00
3312;DHT22;1668;49.648;8.570;2023-03-01T06:15:31;-0.30;1.00
3312;DHT22;1668;49.648;8.570;2023-03-01T06:17:58;-0.30;1.00
3312;DHT22;1668;49.648;8.570;2023-03-01T06:20:27;-0.30;1.00
3312;DHT22;1668;49.648;8.570;2023-03-01T06:22:56;-0.30;1.00
3312;DHT22;1668;49.648;8.570;2023-03-01T06:25:25;-0.30;1.00
3312;DHT22;1668;49.648;8.570;2023-03-01T06:27:52;-0.30;9.60
3312;DHT22;1668;49.648;8.570;2023-03-01T06:30:20;-0.30;35.40
3312;DHT22;1668;49.648;8.570;2023-03-01T06:32:47;-0.20;4.20
3312;DHT22;1668;49.648;8.570;2023-03-01T06:35:15;-0.20;1.00
3312;DHT22;1668;49.648;8.570;2023-03-01T06:37:44;-0.20;1.00
3312;DHT22;1668;49.648;8.570;2023-03-01T06:40:13;-0.20;1.00
3312;DHT22;1668;49.648;8.570;2023-03-01T06:42:41;-0.20;1.00
3312;DHT22;1668;49.648;8.570;2023-03-01T06:45:09;-0.20;1.00
3312;DHT22;1668;49.648;8.570;2023-03-01T06:47:37;-0.10;1.00
3312;DHT22;1668;49.648;8.570;2023-03-01T06:50:04;-0.10;1.00
3312;DHT22;1668;49.648;8.570;2023-03-01T06:52:31;-0.10;1.00
3312;DHT22;1668;49.648;8.570;2023-03-01T06:54:58;-0.10;1.00
3312;DHT22;1668;49.648;8.570;2023-03-01T06:57:26;-0.10;1.00
3312;DHT22;1668;49.648;8.570;2023-03-01T06:59:53;0.00;1.00
3312;DHT22;1668;49.648;8.570;2023-03-01T07:02:20;0.00;1.00
3312;DHT22;1668;49.648;8.570;2023-03-01T07:04:49;0.00;1.00
3312;DHT22;1668;49.648;8.570;2023-03-01T07:07:16;0.00;1.00
3312;DHT22;1668;49.648;8.570;2023-03-01T07:09:43;0.10;1.00
3312;DHT22;1668;49.648;8.570;2023-03-01T07:12:10;0.10;1.00
3312;DHT22;1668;49.648;8.570;2023-03-01T07:14:39;0.10;1.00
3312;DHT22;1668;49.648;8.570;2023-03-01T07:17:06;0.10;1.00
3312;DHT22;1668;49.648;8.570;2023-03-01T07:19:33;0.20;1.00
3312;DHT22;1668;49.648;8.570;2023-03-01T07:25:22;0.20;1.00
3312;DHT22;1668;49.648;8.570;2023-03-01T07:27:50;0.20;1.00
3312;DHT22;1668;49.648;8.570;2023-03-01T07:30:20;0.30;1.00
3312;DHT22;1668;49.648;8.570;2023-03-01T07:32:47;0.30;1.00
3312;DHT22;1668;49.648;8.570;2023-03-01T07:35:14;0.30;1.00
3312;DHT22;1668;49.648;8.570;2023-03-01T07:37:41;0.40;1.00
3312;DHT22;1668;49.648;8.570;2023-03-01T07:40:10;0.40;1.00
3312;DHT22;1668;49.648;8.570;2023-03-01T07:42:37;0.40;1.00
3312;DHT22;1668;49.648;8.570;2023-03-01T07:45:05;0.50;1.00
3312;DHT22;1668;49.648;8.570;2023-03-01T07:47:34;0.50;1.00
3312;DHT22;1668;49.648;8.570;2023-03-01T07:50:02;0.50;1.00
3312;DHT22;1668;49.648;8.570;2023-03-01T07:52:29;0.60;1.00
3312;DHT22;1668;49.648;8.570;2023-03-01T07:54:57;0.60;1.00
3312;DHT22;1668;49.648;8.570;2023-03-01T07:57:24;0.60;1.00
3312;DHT22;1668;49.648;8.570;2023-03-01T07:59:51;0.70;1.00
3312;DHT22;1668;49.648;8.570;2023-03-01T08:02:18;0.70;1.00
3312;DHT22;1668;49.648;8.570;2023-03-01T08:04:46;0.80;1.00
3312;DHT22;1668;49.648;8.570;2023-03-01T08:07:13;0.80;1.00
3312;DHT22;1668;49.648;8.570;2023-03-01T08:09:40;0.80;1.00
3312;DHT22;1668;49.648;8.570;2023-03-01T08:12:07;0.90;99.90
3312;DHT22;1668;49.648;8.570;2023-03-01T08:14:34;0.90;99.90
3312;DHT22;1668;49.648;8.570;2023-03-01T08:17:01;0.90;99.90
3312;DHT22;1668;49.648;8.570;2023-03-01T08:19:29;1.00;99.90
3312;DHT22;1668;49.648;8.570;2023-03-01T08:21:58;1.10;99.90
3312;DHT22;1668;49.648;8.570;2023-03-01T08:24:25;1.10;99.90
3312;DHT22;1668;49.648;8.570;2023-03-01T08:26:53;1.20;99.90
3312;DHT22;1668;49.648;8.570;2023-03-01T08:29:20;1.20;99.90
3312;DHT22;1668;49.648;8.570;2023-03-01T08:31:47;1.30;99.90
3312;DHT22;1668;49.648;8.570;2023-03-01T08:34:17;1.30;99.90
3312;DHT22;1668;49.648;8.570;2023-03-01T08:36:45;1.40;99.90
3312;DHT22;1668;49.648;8.570;2023-03-01T08:39:15;1.40;99.90
3312;DHT22;1668;49.648;8.570;2023-03-01T08:41:42;1.50;99.90
3312;DHT22;1668;49.648;8.570;2023-03-01T08:44:09;1.50;99.90
3312;DHT22;1668;49.648;8.570;2023-03-01T08:46:39;1.60;99.90
3312;DHT22;1668;49.648;8.570;2023-03-01T08:49:24;1.70;96.40
3312;DHT22;1668;49.648;8.570;2023-03-01T08:51:52;1.80;69.70
3312;DHT22;1668;49.648;8.570;2023-03-01T08:54:21;1.80;33.80
3312;DHT22;1668;49.648;8.570;2023-03-01T08:56:48;1.90;82.00
3312;DHT22;1668;49.648;8.570;2023-03-01T08:59:16;1.90;26.50
3312;DHT22;1668;49.648;8.570;2023-03-01T09:01:43;2.00;19.00
3312;DHT22;1668;49.648;8.570;2023-03-01T09:04:10;2.00;46.00
3312;DHT22;1668;49.648;8.570;2023-03-01T09:06:37;2.20;17.80
3312;DHT22;1668;49.648;8.570;2023-03-01T09:09:05;2.30;1.00
3312;DHT22;1668;49.648;8.570;2023-03-01T09:11:33;2.40;1.00
3312;DHT22;1668;49.648;8.570;2023-03-01T09:14:00;2.50;1.00
3312;DHT22;1668;49.648;8.570;2023-03-01T09:16:27;2.60;1.00
3312;DHT22;1668;49.648;8.570;2023-03-01T09:18:55;2.70;1.00
3312;DHT22;1668;49.648;8.570;2023-03-01T09:21:22;2.70;1.00
3312;DHT22;1668;49.648;8.570;2023-03-01T09:23:49;2.80;1.00
3312;DHT22;1668;49.648;8.570;2023-03-01T09:26:19;2.90;1.00
3312;DHT22;1668;49.648;8.570;2023-03-01T09:28:49;3.00;1.00
3312;DHT22;1668;49.648;8.570;2023-03-01T09:31:18;3.00;1.00
3312;DHT22;1668;49.648;8.570;2023-03-01T09:33:48;3.10;1.00
3312;DHT22;1668;49.648;8.570;2023-03-01T09:36:18;3.10;1.00
3312;DHT22;1668;49.648;8.570;2023-03-01T09:38:46;3.20;1.00
3312;DHT22;1668;49.648;8.570;2023-03-01T09:41:36;3.40;1.00
3312;DHT22;1668;49.648;8.570;2023-03-01T09:44:16;3.50;1.00
3312;DHT22;1668;49.648;8.570;2023-03-01T09:46:46;3.60;1.00
3312;DHT22;1668;49.648;8.570;2023-03-01T09:49:16;3.70;1.00
3312;DHT22;1668;49.648;8.570;2023-03-01T09:51:53;3.70;1.00
3312;DHT22;1668;49.648;8.570;2023-03-01T09:54:21;3.80;1.00
3312;DHT22;1668;49.648;8.570;2023-03-01T09:57:01;3.90;1.00
3312;DHT22;1668;49.648;8.570;2023-03-01T09:59:38;3.90;1.00
3312;DHT22;1668;49.648;8.570;2023-03-01T10:02:21;4.00;1.00
3312;DHT22;1668;49.648;8.570;2023-03-01T10:04:53;4.00;1.00
3312;DHT22;1668;49.648;8.570;2023-03-01T10:07:29;4.10;1.00
3312;DHT22;1668;49.648;8.570;2023-03-01T10:09:59;4.10;1.00
3312;DHT22;1668;49.648;8.570;2023-03-01T10:12:34;4.20;1.00
3312;DHT22;1668;49.648;8.570;2023-03-01T10:15:07;4.30;1.00
3312;DHT22;1668;49.648;8.570;2023-03-01T10:17:41;4.30;1.00
3312;DHT22;1668;49.648;8.570;2023-03-01T10:20:18;4.40;1.00
3312;DHT22;1668;49.648;8.570;2023-03-01T10:22:46;4.40;1.00
3312;DHT22;1668;49.648;8.570;2023-03-01T10:25:23;4.50;1.00
3312;DHT22;1668;49.648;8.570;2023-03-01T10:28:02;4.60;1.00
3312;DHT22;1668;49.648;8.570;2023-03-01T10:30:35;4.70;1.00
3312;DHT22;1668;49.648;8.570;2023-03-01T10:33:08;4.80;1.00
3312;DHT22;1668;49.648;8.570;2023-03-01T10:35:39;4.90;1.00
3312;DHT22;1668;49.648;8.570;2023-03-01T10:38:09;5.00;1.00
3312;DHT22;1668;49.648;8.570;2023-03-01T10:40:49;5.10;1.00
3312;DHT22;1668;49.648;8.570;2023-03-01T10:43:16;5.20;1.00
3312;DHT22;1668;49.648;8.570;2023-03-01T10:45:45;5.30;1.00
3312;DHT22;1668;49.648;8.570;2023-03-01T10:48:14;5.40;1.00
3312;DHT22;1668;49.648;8.570;2023-03-01T10:50:43;5.50;1.00
3312;DHT22;1668;49.648;8.570;2023-03-01T10:53:22;5.50;1.00
3312;DHT22;1668;49.648;8.570;2023-03-01T10:56:04;5.60;1.00
3312;DHT22;1668;49.648;8.570;2023-03-01T10:58:32;5.70;1.00
3312;DHT22;1668;49.648;8.570;2023-03-01T11:01:03;5.80;1.00
3312;DHT22;1668;49.648;8.570;2023-03-01T11:03:31;5.80;1.00
3312;DHT22;1668;49.648;8.570;2023-03-01T11:06:02;5.90;1.00
3312;DHT22;1668;49.648;8.570;2023-03-01T11:08:31;6.00;1.00
3312;DHT22;1668;49.648;8.570;2023-03-01T11:11:18;6.10;1.00
3312;DHT22;1668;49.648;8.570;2023-03-01T11:13:54;6.10;1.00
3312;DHT22;1668;49.648;8.570;2023-03-01T11:16:29;6.20;1.00
3312;DHT22;1668;49.648;8.570;2023-03-01T11:18:58;6.30;1.00
3312;DHT22;1668;49.648;8.570;2023-03-01T11:21:28;6.40;1.00
3312;DHT22;1668;49.648;8.570;2023-03-01T11:23:55;6.40;1.00
3312;DHT22;1668;49.648;8.570;2023-03-01T11:26:24;6.50;1.00
3312;DHT22;1668;49.648;8.570;2023-03-01T11:28:54;6.50;1.00
3312;DHT22;1668;49.648;8.570;2023-03-01T11:31:25;6.60;1.00
3312;DHT22;1668;49.648;8.570;2023-03-01T11:33:57;6.70;1.00
3312;DHT22;1668;49.648;8.570;2023-03-01T11:36:29;6.80;1.00
3312;DHT22;1668;49.648;8.570;2023-03-01T11:38:57;6.80;1.00
3312;DHT22;1668;49.648;8.570;2023-03-01T11:41:31;6.90;1.00
3312;DHT22;1668;49.648;8.570;2023-03-01T11:44:00;7.00;1.00
3312;DHT22;1668;49.648;8.570;2023-03-01T11:46:46;7.00;1.00
3312;DHT22;1668;49.648;8.570;2023-03-01T11:52:23;7.10;1.00
3312;DHT22;1668;49.648;8.570;2023-03-01T11:55:05;7.20;1.00
3312;DHT22;1668;49.648;8.570;2023-03-01T11:57:44;7.30;1.00
3312;DHT22;1668;49.648;8.570;2023-03-01T12:00:25;7.40;1.00
3312;DHT22;1668;49.648;8.570;2023-03-01T12:06:21;7.50;1.00
3312;DHT22;1668;49.648;8.570;2023-03-01T12:09:01;7.70;1.00
3312;DHT22;1668;49.648;8.570;2023-03-01T12:11:40;7.70;1.00
3312;DHT22;1668;49.648;8.570;2023-03-01T12:14:23;7.70;1.00
3312;DHT22;1668;49.648;8.570;2023-03-01T12:17:19;7.60;1.00
3312;DHT22;1668;49.648;8.570;2023-03-01T12:20:04;7.80;1.00
3312;DHT22;1668;49.648;8.570;2023-03-01T12:22:44;7.90;1.00
3312;DHT22;1668;49.648;8.570;2023-03-01T12:25:25;8.00;1.00
3312;DHT22;1668;49.648;8.570;2023-03-01T12:28:17;8.00;1.00
3312;DHT22;1668;49.648;8.570;2023-03-01T12:33:49;8.20;1.00
3312;DHT22;1668;49.648;8.570;2023-03-01T12:39:43;8.40;1.00
3312;DHT22;1668;49.648;8.570;2023-03-01T12:42:21;8.40;1.00
3312;DHT22;1668;49.648;8.570;2023-03-01T12:45:02;8.50;1.00
3312;DHT22;1668;49.648;8.570;2023-03-01T12:47:45;8.70;1.00
3312;DHT22;1668;49.648;8.570;2023-03-01T12:50:19;8.80;1.00
3312;DHT22;1668;49.648;8.570;2023-03-01T12:52:50;8.80;1.00
3312;DHT22;1668;49.648;8.570;2023-03-01T12:55:29;8.80;1.00
3312;DHT22;1668;49.648;8.570;2023-03-01T12:58:05;8.90;1.00
3312;DHT22;1668;49.648;8.570;2023-03-01T13:00:39;8.90;1.00
3312;DHT22;1668;49.648;8.570;2023-03-01T13:03:16;9.00;1.00
3312;DHT22;1668;49.648;8.570;2023-03-01T13:05:56;9.10;1.00
3312;DHT22;1668;49.648;8.570;2023-03-01T13:08:31;9.30;1.00
3312;DHT22;1668;49.648;8.570;2023-03-01T13:11:03;9.40;1.00
3312;DHT22;1668;49.648;8.570;2023-03-01T13:13:30;9.40;1.00
3312;DHT22;1668;49.648;8.570;2023-03-01T13:16:22;9.30;1.00
3312;DHT22;1668;49.648;8.570;2023-03-01T13:19:12;9.30;1.00
3312;DHT22;1668;49.648;8.570;2023-03-01T13:21:40;9.50;1.00
3312;DHT22;1668;49.648;8.570;2023-03-01T13:24:24;9.50;1.00
3312;DHT22;1668;49.648;8.570;2023-03-01T13:27:23;9.50;1.00
3312;DHT22;1668;49.648;8.570;2023-03-01T13:29:55;9.60;1.00
3312;DHT22;1668;49.648;8.570;2023-03-01T13:32:23;9.80;1.00
3312;DHT22;1668;49.648;8.570;2023-03-01T13:35:00;9.70;1.00
3312;DHT22;1668;49.648;8.570;2023-03-01T13:37:35;9.80;1.00
3312;DHT22;1668;49.648;8.570;2023-03-01T13:43:30;9.60;1.00
3312;DHT22;1668;49.648;8.570;2023-03-01T13:45:59;9.60;1.00
3312;DHT22;1668;49.648;8.570;2023-03-01T13:48:28;9.50;1.00
3312;DHT22;1668;49.648;8.570;2023-03-01T13:50:59;9.40;1.00
3312;DHT22;1668;49.648;8.570;2023-03-01T13:53:30;9.50;1.00
3312;DHT22;1668;49.648;8.570;2023-03-01T13:56:00;9.40;1.00
3312;DHT22;1668;49.648;8.570;2023-03-01T13:58:31;9.40;1.00
3312;DHT22;1668;49.648;8.570;2023-03-01T14:01:00;9.40;1.00
3312;DHT22;1668;49.648;8.570;2023-03-01T14:03:28;9.30;1.00
3312;DHT22;1668;49.648;8.570;2023-03-01T14:06:14;9.30;1.00
3312;DHT22;1668;49.648;8.570;2023-03-01T14:08:44;9.10;1.00
3312;DHT22;1668;49.648;8.570;2023-03-01T14:14:46;9.20;1.00
3312;DHT22;1668;49.648;8.570;2023-03-01T14:17:34;9.10;1.00
3312;DHT22;1668;49.648;8.570;2023-03-01T14:20:11;9.30;1.00
3312;DHT22;1668;49.648;8.570;2023-03-01T14:22:40;9.30;1.00
3312;DHT22;1668;49.648;8.570;2023-03-01T14:25:19;9.40;1.00
3312;DHT22;1668;49.648;8.570;2023-03-01T14:27:52;9.40;1.00
3312;DHT22;1668;49.648;8.570;2023-03-01T14:30:24;9.40;1.00
3312;DHT22;1668;49.648;8.570;2023-03-01T14:32:53;9.40;1.00
3312;DHT22;1668;49.648;8.570;2023-03-01T14:35:22;9.50;1.00
3312;DHT22;1668;49.648;8.570;2023-03-01T14:37:49;9.50;1.00
3312;DHT22;1668;49.648;8.570;2023-03-01T14:40:25;9.70;1.00
3312;DHT22;1668;49.648;8.570;2023-03-01T14:42:54;9.70;1.00
3312;DHT22;1668;49.648;8.570;2023-03-01T14:45:25;9.80;1.00
3312;DHT22;1668;49.648;8.570;2023-03-01T14:47:52;10.00;1.00
3312;DHT22;1668;49.648;8.570;2023-03-01T14:50:24;10.00;1.00
3312;DHT22;1668;49.648;8.570;2023-03-01T14:52:54;10.10;1.00
3312;DHT22;1668;49.648;8.570;2023-03-01T14:55:24;10.10;1.00
3312;DHT22;1668;49.648;8.570;2023-03-01T14:57:52;10.20;1.00
3312;DHT22;1668;49.648;8.570;2023-03-01T15:00:23;10.20;1.00
3312;DHT22;1668;49.648;8.570;2023-03-01T15:02:52;10.30;1.00
3312;DHT22;1668;49.648;8.570;2023-03-01T15:05:25;10.40;1.00
3312;DHT22;1668;49.648;8.570;2023-03-01T15:07:54;10.60;1.00
3312;DHT22;1668;49.648;8.570;2023-03-01T15:10:23;10.80;1.00
3312;DHT22;1668;49.648;8.570;2023-03-01T15:12:51;10.90;1.00
3312;DHT22;1668;49.648;8.570;2023-03-01T15:15:34;10.80;1.00
3312;DHT22;1668;49.648;8.570;2023-03-01T15:18:04;11.20;1.00
3312;DHT22;1668;49.648;8.570;2023-03-01T15:20:33;11.20;1.00
3312;DHT22;1668;49.648;8.570;2023-03-01T15:23:02;11.20;1.00
3312;DHT22;1668;49.648;8.570;2023-03-01T15:25:30;11.30;1.00
3312;DHT22;1668;49.648;8.570;2023-03-01T15:27:59;11.30;1.00
3312;DHT22;1668;49.648;8.570;2023-03-01T15:30:31;11.00;1.00
3312;DHT22;1668;49.648;8.570;2023-03-01T15:33:20;10.60;1.00
3312;DHT22;1668;49.648;8.570;2023-03-01T15:35:54;10.50;1.00
3312;DHT22;1668;49.648;8.570;2023-03-01T15:38:27;10.40;1.00
3312;DHT22;1668;49.648;8.570;2023-03-01T15:40:56;10.30;1.00
3312;DHT22;1668;49.648;8.570;2023-03-01T15:43:43;10.20;1.00
3312;DHT22;1668;49.648;8.570;2023-03-01T15:46:24;10.00;1.00
3312;DHT22;1668;49.648;8.570;2023-03-01T15:48:53;9.90;1.00
3312;DHT22;1668;49.648;8.570;2023-03-01T15:51:33;9.90;1.00
3312;DHT22;1668;49.648;8.570;2023-03-01T15:54:04;9.80;1.00
3312;DHT22;1668;49.648;8.570;2023-03-01T15:56:31;9.80;1.00
3312;DHT22;1668;49.648;8.570;2023-03-01T15:59:01;9.70;1.00
3312;DHT22;1668;49.648;8.570;2023-03-01T16:01:29;9.70;1.00
3312;DHT22;1668;49.648;8.570;2023-03-01T16:03:56;9.60;1.00
3312;DHT22;1668;49.648;8.570;2023-03-01T16:06:24;9.50;1.00
3312;DHT22;1668;49.648;8.570;2023-03-01T16:08:51;9.40;1.00
3312;DHT22;1668;49.648;8.570;2023-03-01T16:11:19;9.20;1.00
3312;DHT22;1668;49.648;8.570;2023-03-01T16:13:46;9.20;1.00
3312;DHT22;1668;49.648;8.570;2023-03-01T16:16:15;9.20;1.00
3312;DHT22;1668;49.648;8.570;2023-03-01T16:18:45;9.10;1.00
3312;DHT22;1668;49.648;8.570;2023-03-01T16:21:19;9.10;1.00
3312;DHT22;1668;49.648;8.570;2023-03-01T16:23:47;8.90;1.00
3312;DHT22;1668;49.648;8.570;2023-03-01T16:26:14;8.90;1.00
3312;DHT22;1668;49.648;8.570;2023-03-01T16:28:41;8.90;1.00
3312;DHT22;1668;49.648;8.570;2023-03-01T16:31:08;8.90;1.00
3312;DHT22;1668;49.648;8.570;2023-03-01T16:33:35;8.80;1.00
3312;DHT22;1668;49.648;8.570;2023-03-01T16:36:07;8.80;1.00
3312;DHT22;1668;49.648;8.570;2023-03-01T16:38:34;8.70;1.00
3312;DHT22;1668;49.648;8.570;2023-03-01T16:41:01;8.70;1.00
3312;DHT22;1668;49.648;8.570;2023-03-01T16:43:29;8.60;1.00
3312;DHT22;1668;49.648;8.570;2023-03-01T16:45:55;8.50;1.00
3312;DHT22;1668;49.648;8.570;2023-03-01T16:48:22;8.40;1.00
3312;DHT22;1668;49.648;8.570;2023-03-01T16:50:56;8.40;1.00
3312;DHT22;1668;49.648;8.570;2023-03-01T16:53:25;8.30;1.00
3312;DHT22;1668;49.648;8.570;2023-03-01T16:55:56;8.20;1.00
3312;DHT22;1668;49.648;8.570;2023-03-01T16:58:23;8.20;1.00
3312;DHT22;1668;49.648;8.570;2023-03-01T17:00:51;8.10;1.00
3312;DHT22;1668;49.648;8.570;2023-03-01T17:03:19;8.00;1.00
3312;DHT22;1668;49.648;8.570;2023-03-01T17:05:46;7.90;1.00
3312;DHT22;1668;49.648;8.570;2023-03-01T17:08:13;7.90;1.00
3312;DHT22;1668;49.648;8.570;2023-03-01T17:10:41;7.80;1.00
3312;DHT22;1668;49.648;8.570;2023-03-01T17:13:08;7.70;1.00
3312;DHT22;1668;49.648;8.570;2023-03-01T17:15:38;7.70;1.00
3312;DHT22;1668;49.648;8.570;2023-03-01T17:18:05;7.60;1.00
3312;DHT22;1668;49.648;8.570;2023-03-01T17:20:32;7.60;1.00
3312;DHT22;1668;49.648;8.570;2023-03-01T17:22:59;7.50;1.00
3312;DHT22;1668;49.648;8.570;2023-03-01T17:25:27;7.50;1.00